Time;durP1;ratioP1;P1;durP2;ratioP2;P2;SDS_P1;SDS_P2;PMS_P1;PMS_P2;Temp;Humidity;BMP_temperature;BMP_pressure;BME280_temperature;BME280_humidity;BME280_pressure;Samples;Min_cycle;Max_cycle;Signal;HPM_P1;HPM_P2
2023/02/21 02:16:01;;;;;;;21.13;17.55;;;5.60;99.90;;;;;;4185903;28;20052;-83
2023/02/21 02:18:51;;;;;;;19.83;17.98;;;5.50;99.90;;;;;;4199860;28;20082;-83
2023/02/21 02:21:33;;;;;;;18.88;17.45;;;5.60;99.90;;;;;;4193303;28;20088;-83
2023/02/21 02:24:15;;;;;;;18.20;16.65;;;5.70;99.90;;;;;;4184283;28;20056;-83
2023/02/21 02:26:46;;;;;;;20.83;18.00;;;5.60;99.90;;;;;;4198779;28;20408;-83
2023/02/21 02:29:54;;;;;;;17.95;16.48;;;5.70;99.90;;;;;;4198629;28;20039;-82
2023/02/21 02:32:24;;;;;;;18.35;17.05;;;5.70;99.90;;;;;;4190419;28;20378;-83
2023/02/21 02:34:44;;;;;;;18.33;16.73;;;5.70;99.90;;;;;;4184382;28;20164;-83
2023/02/21 02:37:29;;;;;;;19.73;17.92;;;5.70;99.90;;;;;;4178012;28;20083;-83
2023/02/21 02:40:02;;;;;;;21.10;18.80;;;5.70;99.90;;;;;;4185538;28;20092;-83
2023/02/21 02:42:32;;;;;;;19.90;18.05;;;5.60;99.90;;;;;;4185031;28;20063;-82
2023/02/21 02:45:25;;;;;;;19.52;17.70;;;5.60;99.90;;;;;;4185537;28;20485;-83
2023/02/21 02:47:53;;;;;;;17.63;16.23;;;5.60;99.90;;;;;;4183884;28;20068;-83
2023/02/21 02:50:15;;;;;;;19.38;17.85;;;5.60;99.90;;;;;;4185684;28;20367;-82
2023/02/21 02:52:37;;;;;;;19.92;17.92;;;5.60;99.90;;;;;;4194464;28;20115;-83
2023/02/21 02:55:23;;;;;;;17.80;16.67;;;5.50;99.90;;;;;;4200633;28;20090;-83
2023/02/21 02:57:47;;;;;;;16.42;15.05;;;5.50;99.90;;;;;;4194111;28;20064;-82
2023/02/21 03:00:09;;;;;;;17.65;16.02;;;5.50;99.90;;;;;;4196825;28;20056;-83
2023/02/21 03:02:44;;;;;;;15.52;14.30;;;5.60;99.90;;;;;;4200964;28;20046;-83
2023/02/21 03:05:26;;;;;;;13.68;12.75;;;5.60;99.90;;;;;;4196376;28;20120;-83
2023/02/21 03:07:57;;;;;;;14.55;13.65;;;5.60;99.90;;;;;;4187620;28;20051;-82
2023/02/21 03:10:27;;;;;;;15.38;14.15;;;5.70;99.90;;;;;;4191443;28;20049;-83
2023/02/21 03:13:02;;;;;;;16.60;15.30;;;5.70;99.90;;;;;;4194945;28;20260;-83
2023/02/21 03:15:28;;;;;;;16.33;15.13;;;5.70;99.90;;;;;;4194617;28;20087;-83
2023/02/21 03:17:59;;;;;;;18.85;16.70;;;5.70;99.90;;;;;;4201517;28;20059;-83
2023/02/21 03:20:21;;;;;;;18.95;17.13;;;5.70;99.90;;;;;;4190800;28;20049;-82
2023/02/21 03:22:44;;;;;;;19.90;18.25;;;5.70;99.90;;;;;;4193939;28;20047;-83
2023/02/21 03:25:05;;;;;;;20.02;17.95;;;5.70;99.90;;;;;;4189995;28;20383;-83
2023/02/21 03:27:28;;;;;;;18.73;17.23;;;5.70;99.90;;;;;;4184578;28;20403;-83
2023/02/21 03:29:49;;;;;;;19.88;17.92;;;5.70;99.90;;;;;;4185398;28;20063;-83
2023/02/21 03:32:39;;;;;;;16.55;15.32;;;5.70;99.90;;;;;;4192075;28;20358;-83
2023/02/21 03:34:59;;;;;;;18.55;17.00;;;5.60;99.90;;;;;;4185877;28;20064;-83
2023/02/21 03:37:34;;;;;;;19.17;17.23;;;5.70;99.90;;;;;;4194583;28;20446;-83
2023/02/21 03:39:53;;;;;;;18.42;17.15;;;5.70;99.90;;;;;;4189745;28;20048;-83
2023/02/21 03:42:13;;;;;;;18.00;16.42;;;5.70;99.90;;;;;;4192870;28;20043;-83
2023/02/21 03:44:33;;;;;;;17.83;16.45;;;5.70;99.90;;;;;;4192859;28;20431;-83
2023/02/21 03:46:54;;;;;;;15.68;14.57;;;5.80;99.90;;;;;;4192679;28;20299;-83
2023/02/21 03:49:14;;;;;;;16.83;15.57;;;5.80;99.90;;;;;;4191005;28;20051;-82
2023/02/21 03:51:33;;;;;;;15.73;14.73;;;5.80;99.90;;;;;;4192718;28;20048;-83
2023/02/21 03:53:54;;;;;;;17.17;15.98;;;5.80;99.90;;;;;;4190940;28;20051;-83
2023/02/21 03:56:15;;;;;;;17.17;15.75;;;5.80;99.90;;;;;;4189420;28;20047;-83
2023/02/21 03:58:35;;;;;;;15.90;14.90;;;5.90;99.90;;;;;;4188220;28;20095;-83
2023/02/21 04:00:57;;;;;;;17.80;16.52;;;5.90;99.90;;;;;;4191817;28;20055;-83
2023/02/21 04:03:17;;;;;;;18.13;16.52;;;5.80;99.90;;;;;;4190945;28;20041;-83
2023/02/21 04:05:38;;;;;;;16.42;15.25;;;5.90;99.90;;;;;;4192093;28;20120;-83
2023/02/21 04:07:58;;;;;;;16.92;15.88;;;5.90;99.90;;;;;;4191232;28;20055;-83
2023/02/21 04:10:18;;;;;;;17.25;15.82;;;6.00;99.90;;;;;;4190945;28;20047;-83
2023/02/21 04:12:38;;;;;;;17.88;16.33;;;5.90;99.90;;;;;;4182002;28;20116;-83
2023/02/21 04:14:58;;;;;;;17.52;16.10;;;6.00;99.90;;;;;;4188634;28;20052;-83
2023/02/21 04:17:19;;;;;;;15.00;13.85;;;6.00;99.90;;;;;;4181619;28;20060;-83
2023/02/21 04:19:38;;;;;;;17.10;15.60;;;6.00;99.90;;;;;;4180896;28;20227;-83
2023/02/21 04:21:58;;;;;;;16.33;15.30;;;6.00;99.90;;;;;;4187437;28;20051;-83
2023/02/21 04:24:18;;;;;;;17.48;16.27;;;6.10;99.90;;;;;;4188222;28;20079;-83
2023/02/21 04:26:38;;;;;;;16.80;15.63;;;6.00;99.90;;;;;;4192194;28;20118;-83
2023/02/21 04:28:58;;;;;;;16.55;15.40;;;6.00;99.90;;;;;;4190764;28;20094;-83
2023/02/21 04:31:18;;;;;;;26.58;18.95;;;6.10;99.90;;;;;;4184357;28;20048;-82
2023/02/21 04:33:38;;;;;;;26.13;20.92;;;6.00;99.90;;;;;;4189515;28;20063;-83
2023/02/21 04:35:58;;;;;;;27.60;19.90;;;6.00;99.90;;;;;;4189887;28;20076;-83
2023/02/21 04:38:20;;;;;;;17.70;15.93;;;6.10;99.90;;;;;;4190903;28;20278;-82
2023/02/21 04:40:40;;;;;;;18.92;17.00;;;6.00;99.90;;;;;;4194091;28;20236;-83
2023/02/21 04:43:00;;;;;;;16.05;14.73;;;6.10;99.90;;;;;;4196610;28;20078;-83
2023/02/21 04:45:20;;;;;;;16.33;15.02;;;6.10;99.90;;;;;;4189640;28;20048;-83
2023/02/21 04:47:41;;;;;;;19.90;17.33;;;6.20;99.90;;;;;;4196644;28;20051;-83
2023/02/21 04:50:01;;;;;;;21.92;19.83;;;6.20;99.90;;;;;;4197414;28;20256;-83
2023/02/21 04:52:20;;;;;;;22.48;20.17;;;6.20;99.90;;;;;;4183131;28;20073;-83
2023/02/21 04:54:40;;;;;;;30.92;24.00;;;6.10;99.90;;;;;;4190164;28;20113;-83
2023/02/21 04:57:00;;;;;;;24.13;21.67;;;6.10;99.90;;;;;;4188331;28;20086;-83
2023/02/21 04:59:20;;;;;;;23.20;20.95;;;6.00;99.90;;;;;;4182839;28;20140;-83
2023/02/21 05:01:41;;;;;;;20.73;18.70;;;6.00;99.90;;;;;;4189195;28;20409;-83
2023/02/21 05:04:01;;;;;;;21.17;19.20;;;6.00;99.90;;;;;;4186690;28;20398;-83
2023/02/21 05:06:23;;;;;;;19.75;18.02;;;5.90;99.90;;;;;;4190553;28;20063;-83
2023/02/21 05:08:43;;;;;;;18.15;16.75;;;5.90;99.90;;;;;;4187181;28;20067;-83
2023/02/21 05:11:03;;;;;;;19.38;17.60;;;5.90;99.90;;;;;;4186810;28;20123;-83
2023/02/21 05:13:23;;;;;;;19.17;17.33;;;6.00;99.90;;;;;;4178238;28;20074;-83
2023/02/21 05:15:43;;;;;;;20.35;18.23;;;5.90;99.90;;;;;;4195832;28;20048;-83
2023/02/21 05:18:02;;;;;;;18.30;16.75;;;5.90;99.90;;;;;;4186529;28;20044;-82
2023/02/21 05:20:22;;;;;;;20.27;18.42;;;6.00;99.90;;;;;;4194250;28;20059;-83
2023/02/21 05:22:43;;;;;;;19.23;17.25;;;6.00;99.90;;;;;;4191512;28;20040;-83
2023/02/21 05:25:02;;;;;;;19.40;17.80;;;6.00;99.90;;;;;;4198698;28;20113;-83
2023/02/21 05:27:29;;;;;;;20.40;18.17;;;6.00;99.90;;;;;;4197389;28;20290;-83
2023/02/21 05:29:51;;;;;;;18.70;16.90;;;6.10;99.90;;;;;;4198767;28;20099;-83
2023/02/21 05:32:11;;;;;;;17.92;16.27;;;6.10;99.90;;;;;;4194543;28;20079;-83
2023/02/21 05:34:30;;;;;;;19.70;18.10;;;6.10;99.90;;;;;;4193599;28;20048;-83
2023/02/21 05:36:50;;;;;;;18.13;16.25;;;6.10;99.90;;;;;;4189816;28;20055;-83
2023/02/21 05:39:10;;;;;;;21.00;19.15;;;6.10;99.90;;;;;;4196496;28;20114;-83
2023/02/21 05:41:31;;;;;;;18.75;17.25;;;6.10;99.90;;;;;;4199250;28;20240;-82
2023/02/21 05:43:51;;;;;;;20.10;18.10;;;5.90;99.90;;;;;;4190848;28;20067;-83
2023/02/21 05:46:26;;;;;;;20.13;18.50;;;5.80;99.90;;;;;;4193495;28;20086;-83
2023/02/21 05:48:46;;;;;;;21.42;19.33;;;5.80;99.90;;;;;;4206346;28;20382;-83
2023/02/21 05:51:06;;;;;;;21.60;19.67;;;5.80;99.90;;;;;;4186712;28;20047;-83
2023/02/21 05:53:26;;;;;;;20.10;18.23;;;5.80;99.90;;;;;;4189406;28;20040;-83
2023/02/21 05:55:46;;;;;;;22.70;18.55;;;5.70;99.90;;;;;;4187825;28;20075;-83
2023/02/21 05:58:06;;;;;;;19.65;17.83;;;5.80;99.90;;;;;;4189738;28;20052;-83
2023/02/21 06:00:28;;;;;;;19.63;17.83;;;5.70;99.90;;;;;;4186153;28;20087;-83
2023/02/21 06:02:52;;;;;;;19.47;17.87;;;5.70;99.90;;;;;;4186271;28;20115;-83
2023/02/21 06:05:12;;;;;;;19.02;17.63;;;5.80;99.90;;;;;;4179758;28;20055;-82
2023/02/21 06:07:32;;;;;;;18.33;16.85;;;5.80;99.90;;;;;;4188397;28;20119;-82
2023/02/21 06:09:53;;;;;;;19.48;17.92;;;5.80;99.90;;;;;;4189539;28;20108;-83
2023/02/21 06:12:12;;;;;;;20.50;18.45;;;5.90;99.90;;;;;;4191347;28;20308;-83
2023/02/21 06:14:32;;;;;;;19.10;17.52;;;5.80;99.90;;;;;;4174102;28;20117;-83
2023/02/21 06:16:53;;;;;;;17.88;16.52;;;5.80;99.90;;;;;;4195143;28;20379;-82
2023/02/21 06:19:15;;;;;;;19.50;17.65;;;5.80;99.90;;;;;;4187953;28;20078;-85
2023/02/21 06:21:39;;;;;;;16.40;15.07;;;5.80;99.90;;;;;;4183211;28;20047;-84
2023/02/21 06:23:59;;;;;;;17.02;15.40;;;5.90;99.90;;;;;;4191515;28;20286;-85
2023/02/21 06:26:22;;;;;;;16.88;15.65;;;5.90;99.90;;;;;;4193843;28;20046;-84
2023/02/21 06:28:42;;;;;;;16.88;15.43;;;6.00;99.90;;;;;;4198304;28;20114;-85
2023/02/21 06:31:03;;;;;;;15.75;14.85;;;6.00;99.90;;;;;;4197803;28;20047;-84
2023/02/21 06:33:24;;;;;;;15.90;14.63;;;6.00;99.90;;;;;;4193338;28;20409;-84
2023/02/21 06:35:45;;;;;;;16.90;15.48;;;6.10;99.90;;;;;;4194736;28;20056;-83
2023/02/21 06:38:05;;;;;;;37.47;27.05;;;6.20;99.90;;;;;;4194231;28;20044;-84
2023/02/21 06:40:24;;;;;;;20.00;18.35;;;6.10;99.90;;;;;;4195611;28;20201;-84
2023/02/21 06:42:48;;;;;;;19.52;17.90;;;6.10;99.90;;;;;;4188350;28;20048;-87
2023/02/21 06:45:08;;;;;;;17.58;16.23;;;6.10;99.90;;;;;;4191203;28;20052;-86
2023/02/21 06:47:28;;;;;;;18.42;16.52;;;6.10;99.90;;;;;;4190008;28;20095;-86
2023/02/21 06:49:48;;;;;;;16.98;15.32;;;6.10;99.90;;;;;;4176460;28;20262;-86
2023/02/21 06:52:09;;;;;;;19.48;17.77;;;6.20;99.90;;;;;;4193872;28;20047;-86
2023/02/21 06:54:29;;;;;;;18.08;16.50;;;6.20;99.90;;;;;;4204057;28;20356;-86
2023/02/21 06:56:50;;;;;;;25.10;22.75;;;6.30;99.90;;;;;;4196254;28;20047;-86
2023/02/21 06:59:10;;;;;;;24.95;22.38;;;6.30;99.90;;;;;;4192695;28;20381;-86
2023/02/21 07:01:31;;;;;;;27.17;24.35;;;6.30;99.90;;;;;;4183148;28;20209;-84
2023/02/21 07:03:51;;;;;;;31.40;24.23;;;6.30;99.90;;;;;;4193379;28;20044;-83
2023/02/21 07:06:12;;;;;;;24.95;22.45;;;6.20;99.90;;;;;;4197219;28;20044;-84
2023/02/21 07:08:32;;;;;;;24.30;21.95;;;6.20;99.90;;;;;;4192108;28;20052;-83
2023/02/21 07:10:53;;;;;;;23.08;20.73;;;6.20;99.90;;;;;;4198182;28;20043;-84
2023/02/21 07:13:13;;;;;;;23.90;21.67;;;6.20;99.90;;;;;;4194942;28;20048;-84
2023/02/21 07:15:33;;;;;;;25.83;20.98;;;6.20;99.90;;;;;;4197800;28;20079;-83
2023/02/21 07:17:54;;;;;;;22.70;20.55;;;6.10;99.90;;;;;;4194350;28;20048;-83
2023/02/21 07:20:14;;;;;;;21.73;19.45;;;6.20;99.90;;;;;;4196153;28;20051;-83
2023/02/21 07:22:36;;;;;;;20.95;18.88;;;6.20;99.90;;;;;;4195720;28;20066;-83
2023/02/21 07:24:56;;;;;;;22.98;19.80;;;6.30;99.90;;;;;;4207069;28;20047;-83
2023/02/21 07:27:19;;;;;;;58.55;39.35;;;6.40;99.90;;;;;;4197155;28;20063;-83
2023/02/21 07:29:39;;;;;;;21.05;18.98;;;6.50;99.90;;;;;;4202791;28;20412;-83
2023/02/21 07:32:00;;;;;;;24.88;22.33;;;6.40;99.90;;;;;;4189127;28;20095;-83
2023/02/21 07:34:21;;;;;;;23.10;20.90;;;6.50;99.90;;;;;;4196837;28;20039;-83
2023/02/21 07:36:42;;;;;;;26.20;23.52;;;6.60;99.90;;;;;;4179931;28;20052;-83
2023/02/21 07:39:02;;;;;;;26.63;22.52;;;6.60;99.90;;;;;;4178912;28;20074;-83
2023/02/21 07:41:22;;;;;;;23.85;21.23;;;6.60;99.90;;;;;;4190626;28;20072;-83
2023/02/21 07:43:42;;;;;;;26.27;23.60;;;6.60;99.90;;;;;;4196602;28;20051;-84
2023/02/21 07:46:02;;;;;;;26.73;24.00;;;6.70;99.90;;;;;;4188171;28;20059;-84
2023/02/21 07:48:23;;;;;;;27.00;24.67;;;6.80;99.90;;;;;;4191361;28;20044;-84
2023/02/21 07:50:44;;;;;;;26.20;23.60;;;6.90;99.90;;;;;;4187427;28;20255;-83
2023/02/21 07:53:04;;;;;;;27.05;22.65;;;6.90;99.90;;;;;;4196401;28;20081;-83
2023/02/21 07:55:25;;;;;;;27.33;24.73;;;7.10;99.90;;;;;;4194022;28;20043;-84
2023/02/21 07:57:46;;;;;;;25.30;22.90;;;7.10;99.90;;;;;;4190557;28;20047;-83
2023/02/21 19:30:51;;;;;;;24.40;21.88;;;9.30;99.90;;;;;;4184872;28;20087;-83
2023/02/21 19:33:11;;;;;;;22.45;20.58;;;9.40;99.90;;;;;;4185503;28;20113;-82
2023/02/21 19:35:32;;;;;;;22.52;20.38;;;9.30;99.90;;;;;;4188898;28;20243;-82
2023/02/21 19:37:52;;;;;;;21.52;19.45;;;9.30;99.90;;;;;;4183373;28;20068;-82
2023/02/21 19:40:12;;;;;;;23.15;20.88;;;9.40;99.90;;;;;;4190750;28;20071;-83
2023/02/21 19:42:33;;;;;;;23.50;20.65;;;9.30;99.90;;;;;;4190590;28;20082;-83
2023/02/21 19:44:55;;;;;;;28.08;23.13;;;9.30;99.90;;;;;;4188381;28;20036;-83
2023/02/21 19:47:15;;;;;;;28.13;25.13;;;9.20;99.90;;;;;;4185757;28;20051;-84
2023/02/21 19:49:35;;;;;;;25.45;22.73;;;9.20;99.90;;;;;;4187812;28;20079;-84
2023/02/21 19:51:58;;;;;;;24.70;22.17;;;9.30;99.90;;;;;;4187815;28;20048;-84
2023/02/21 19:54:20;;;;;;;;;;;9.30;99.90;;;;;;4191391;28;20062;-84
2023/02/21 19:56:41;;;;;;;25.30;22.77;;;9.30;99.90;;;;;;4189953;28;19924;-84
2023/02/21 19:59:01;;;;;;;24.33;22.13;;;9.20;99.90;;;;;;4182130;28;20055;-84
2023/02/21 20:01:24;;;;;;;21.98;20.08;;;9.20;99.90;;;;;;4191306;28;20052;-84
2023/02/21 20:03:48;;;;;;;23.05;20.90;;;9.30;99.90;;;;;;4192714;28;20089;-84
2023/02/21 20:06:09;;;;;;;21.25;19.38;;;9.30;99.90;;;;;;4192737;28;20406;-84
2023/02/21 20:08:30;;;;;;;21.95;20.05;;;9.30;99.90;;;;;;4185326;28;20060;-85
2023/02/21 20:10:51;;;;;;;21.65;19.88;;;9.30;99.90;;;;;;4200578;28;20067;-84
2023/02/21 20:13:10;;;;;;;22.98;20.77;;;9.30;99.90;;;;;;4190974;28;20055;-85
2023/02/21 20:15:31;;;;;;;21.90;19.50;;;9.30;99.90;;;;;;4178961;28;20057;-85
2023/02/21 20:17:53;;;;;;;21.05;19.05;;;9.30;99.90;;;;;;4192999;28;20051;-84
2023/02/21 20:20:14;;;;;;;23.00;21.00;;;9.30;99.90;;;;;;4182801;28;20053;-84
2023/02/21 20:22:37;;;;;;;23.23;21.25;;;9.30;99.90;;;;;;4190768;28;20164;-84
2023/02/21 20:24:57;;;;;;;30.08;27.33;;;9.30;99.90;;;;;;4185422;28;20105;-84
2023/02/21 20:27:17;;;;;;;25.67;22.90;;;9.30;99.90;;;;;;4184075;28;20075;-84
2023/02/21 20:29:37;;;;;;;30.42;27.30;;;9.30;99.90;;;;;;4189517;28;20393;-85
2023/02/21 20:31:59;;;;;;;29.02;25.58;;;9.20;99.90;;;;;;4191310;28;20055;-84
2023/02/21 20:34:20;;;;;;;24.52;22.27;;;9.20;99.90;;;;;;4191310;28;20095;-84
2023/02/21 20:36:43;;;;;;;24.42;21.98;;;9.20;99.90;;;;;;4188564;28;20075;-84
2023/02/21 20:39:06;;;;;;;23.35;20.63;;;9.20;99.90;;;;;;4185976;28;20401;-84
2023/02/21 20:41:31;;;;;;;24.17;22.20;;;9.30;99.90;;;;;;4195154;28;20071;-84
2023/02/21 20:43:51;;;;;;;23.95;21.70;;;9.30;99.90;;;;;;4182908;28;20394;-84
2023/02/21 20:46:11;;;;;;;27.20;23.63;;;9.30;99.90;;;;;;4195949;28;20047;-84
2023/02/21 20:48:31;;;;;;;29.38;26.20;;;9.30;99.90;;;;;;4193301;28;20086;-84
2023/02/21 20:50:52;;;;;;;29.73;26.88;;;9.20;99.90;;;;;;4186702;28;20078;-83
2023/02/21 20:53:16;;;;;;;36.03;30.85;;;9.20;99.90;;;;;;4190640;28;20078;-84
2023/02/21 20:55:36;;;;;;;25.92;23.20;;;9.20;99.90;;;;;;4192798;28;20063;-84
2023/02/21 20:57:56;;;;;;;28.67;25.63;;;9.20;99.90;;;;;;4197528;28;20082;-84
2023/02/21 21:00:17;;;;;;;30.77;24.67;;;9.20;99.90;;;;;;4184556;28;20451;-84
2023/02/21 21:02:37;;;;;;;26.52;23.90;;;9.20;99.90;;;;;;4188992;28;20080;-85
2023/02/21 21:04:57;;;;;;;24.85;21.80;;;9.20;99.90;;;;;;4187781;28;20052;-84
2023/02/21 21:07:21;;;;;;;29.98;26.92;;;9.20;99.90;;;;;;4192235;28;20082;-84
2023/02/21 21:09:42;;;;;;;33.85;28.90;;;9.20;99.90;;;;;;4192323;28;20051;-84
2023/02/21 21:12:10;;;;;;;30.55;27.30;;;9.10;99.90;;;;;;4189137;28;20124;-84
2023/02/21 21:14:32;;;;;;;32.50;29.00;;;9.10;99.90;;;;;;4188000;28;20040;-85
2023/02/21 21:16:55;;;;;;;45.92;33.90;;;9.00;99.90;;;;;;4190021;28;20048;-84
2023/02/21 21:19:15;;;;;;;43.55;30.83;;;9.00;99.90;;;;;;4188283;28;20263;-84
2023/02/21 21:21:36;;;;;;;47.90;33.85;;;9.10;99.90;;;;;;4191447;28;20052;-84
2023/02/21 21:23:56;;;;;;;37.33;31.13;;;9.30;99.90;;;;;;4188244;28;20389;-84
2023/02/21 21:26:17;;;;;;;39.17;32.55;;;9.20;99.90;;;;;;4186598;28;20053;-84
2023/02/21 21:28:39;;;;;;;35.78;27.83;;;9.20;99.90;;;;;;4190200;28;20056;-84
2023/02/21 21:30:59;;;;;;;27.92;25.13;;;9.20;99.90;;;;;;4196635;28;20044;-84
2023/02/21 21:33:21;;;;;;;38.10;30.00;;;9.20;99.90;;;;;;4187958;28;20056;-84
2023/02/21 21:35:40;;;;;;;40.70;33.97;;;9.20;99.90;;;;;;4194224;28;20048;-84
2023/02/21 21:38:01;;;;;;;39.08;32.30;;;9.10;99.90;;;;;;4190669;28;20044;-84
2023/02/21 21:40:23;;;;;;;43.25;34.40;;;9.00;99.90;;;;;;4185736;28;20055;-84
2023/02/21 21:42:47;;;;;;;41.97;34.05;;;8.90;99.90;;;;;;4191264;28;20044;-84
2023/02/21 21:45:17;;;;;;;33.95;29.40;;;9.10;99.90;;;;;;4178090;28;20236;-85
2023/02/21 21:47:37;;;;;;;35.53;28.98;;;9.10;99.90;;;;;;4186146;28;20239;-84
2023/02/21 21:49:58;;;;;;;33.83;28.20;;;9.00;99.90;;;;;;4189738;28;20095;-85
2023/02/21 21:52:19;;;;;;;34.13;28.35;;;8.90;99.90;;;;;;4189938;28;20063;-84
2023/02/21 21:54:44;;;;;;;33.67;26.92;;;8.80;99.90;;;;;;4190353;28;20075;-84
2023/02/21 21:57:04;;;;;;;29.58;26.45;;;9.00;99.90;;;;;;4186297;28;20148;-84
2023/02/21 21:59:25;;;;;;;29.38;26.40;;;9.00;99.90;;;;;;4194887;28;20044;-84
2023/02/21 22:01:47;;;;;;;30.70;27.45;;;9.00;99.90;;;;;;4187251;28;20060;-85
2023/02/21 22:04:09;;;;;;;31.55;28.48;;;8.90;99.90;;;;;;4191088;28;20035;-84
2023/02/21 22:06:29;;;;;;;34.90;29.85;;;8.80;99.90;;;;;;4196085;28;20294;-84
2023/02/21 22:08:49;;;;;;;31.30;27.95;;;8.90;99.90;;;;;;4195336;28;20058;-84
2023/02/21 22:11:10;;;;;;;34.17;30.33;;;9.00;99.90;;;;;;4187476;28;20048;-84
2023/02/21 22:13:32;;;;;;;30.98;27.58;;;9.00;99.90;;;;;;4195820;28;20103;-84
2023/02/21 22:15:55;;;;;;;37.70;28.38;;;8.90;99.90;;;;;;4184430;28;20060;-84
2023/02/21 22:18:17;;;;;;;31.63;28.48;;;8.80;99.90;;;;;;4192104;28;20056;-84
2023/02/21 22:20:37;;;;;;;31.50;28.17;;;8.80;99.90;;;;;;4193411;28;20043;-84
2023/02/21 22:22:57;;;;;;;38.88;24.35;;;8.80;99.90;;;;;;4188484;28;20052;-84
2023/02/21 22:25:19;;;;;;;28.63;25.73;;;8.80;99.90;;;;;;4193977;28;20060;-84
2023/02/21 22:27:40;;;;;;;29.05;25.85;;;8.80;99.90;;;;;;4190951;28;20080;-84
2023/02/21 22:29:59;;;;;;;29.38;26.35;;;8.90;99.90;;;;;;4193016;28;20100;-84
2023/02/21 22:32:19;;;;;;;28.83;25.77;;;8.80;99.90;;;;;;4192594;28;20296;-84
2023/02/21 22:34:39;;;;;;;26.75;23.42;;;8.90;99.90;;;;;;4197397;28;20244;-84
2023/02/21 22:36:59;;;;;;;26.17;23.45;;;8.90;99.90;;;;;;4195305;28;20068;-84
2023/02/21 22:39:20;;;;;;;32.70;28.13;;;8.80;99.90;;;;;;4194619;28;20322;-85
2023/02/21 22:41:42;;;;;;;30.30;27.27;;;8.80;99.90;;;;;;4182835;28;20048;-84
2023/02/21 22:44:02;;;;;;;31.25;28.05;;;8.90;99.90;;;;;;4193676;28;20048;-84
2023/02/21 22:46:24;;;;;;;32.38;29.00;;;8.80;99.90;;;;;;4193902;28;20082;-84
2023/02/21 22:48:45;;;;;;;31.48;27.70;;;8.80;99.90;;;;;;4186802;28;20110;-84
2023/02/21 22:51:07;;;;;;;33.22;28.80;;;8.80;99.90;;;;;;4192701;28;20087;-84
2023/02/21 22:53:27;;;;;;;43.35;34.00;;;8.80;99.90;;;;;;4186476;28;20280;-84
2023/02/21 22:55:49;;;;;;;41.63;32.33;;;8.80;99.90;;;;;;4193739;28;20110;-84
2023/02/21 22:58:12;;;;;;;39.15;33.17;;;8.80;99.90;;;;;;4192461;28;20059;-84
2023/02/21 23:00:34;;;;;;;39.33;30.58;;;9.00;99.90;;;;;;4193626;28;20091;-84
2023/02/21 23:02:54;;;;;;;34.97;30.00;;;9.10;99.90;;;;;;4181985;28;20314;-84
2023/02/21 23:05:18;;;;;;;48.47;35.95;;;9.10;99.90;;;;;;4192799;28;20240;-84
2023/02/21 23:07:38;;;;;;;52.15;40.45;;;9.00;99.90;;;;;;4195363;28;20263;-84
2023/02/21 23:09:58;;;;;;;48.78;38.50;;;8.90;99.90;;;;;;4201501;28;20051;-84
2023/02/21 23:16:03;;;;;;;30.40;27.35;;;8.80;99.90;;;;;;4192890;28;20037;-84
2023/02/21 23:18:30;;;;;;;39.30;30.40;;;8.90;99.90;;;;;;4192362;28;20048;-84
2023/02/21 23:20:56;;;;;;;43.92;37.03;;;8.80;99.90;;;;;;4181278;28;20056;-84
2023/02/21 23:23:16;;;;;;;39.45;34.22;;;8.80;99.90;;;;;;4192619;28;20093;-84
2023/02/21 23:25:35;;;;;;;52.97;37.13;;;8.70;99.90;;;;;;4196670;28;20052;-84
2023/02/21 23:27:57;;;;;;;54.88;40.17;;;8.60;99.90;;;;;;4193181;28;20252;-84
2023/02/21 23:30:18;;;;;;;52.83;37.78;;;8.60;99.90;;;;;;4192450;28;20055;-84
2023/02/21 23:32:40;;;;;;;47.72;35.78;;;8.50;99.90;;;;;;4195405;28;20044;-84
2023/02/21 23:35:00;;;;;;;42.33;33.58;;;8.50;99.90;;;;;;4195626;28;20393;-84
2023/02/21 23:37:21;;;;;;;40.25;31.08;;;8.40;99.90;;;;;;4193646;28;20396;-84
2023/02/21 23:39:41;;;;;;;32.55;29.17;;;8.40;99.90;;;;;;4194333;28;20048;-84
2023/02/21 23:42:01;;;;;;;30.25;27.17;;;8.40;99.90;;;;;;4191056;28;20052;-84
2023/02/21 23:48:14;;;;;;;28.30;25.42;;;8.30;99.90;;;;;;4186856;28;20035;-84
2023/02/21 23:50:36;;;;;;;29.27;26.27;;;8.30;99.90;;;;;;4185366;28;20090;-84
2023/02/21 23:52:58;;;;;;;26.92;24.35;;;8.40;99.90;;;;;;4188183;28;20079;-84
2023/02/21 23:55:26;;;;;;;28.60;25.65;;;8.40;99.90;;;;;;4182837;28;20116;-84
2023/02/21 23:57:46;;;;;;;30.20;27.13;;;8.40;99.90;;;;;;4195663;28;20405;-84
